createdAt,value
2024-02-12T00:03:58.782Z,98054.30
2024-02-12T00:09:01.318Z,98050.44
2024-02-12T00:14:05.411Z,98044.20
2024-02-12T00:19:10.717Z,98045.17
2024-02-12T00:24:15.418Z,98039.50
2024-02-12T00:29:18.083Z,98038.85
2024-02-12T00:34:22.194Z,98037.38
2024-02-12T00:39:25.214Z,98040.04
2024-02-12T00:44:27.780Z,98034.57
2024-02-12T00:49:30.348Z,98031.33
2024-02-12T00:54:33.511Z,98030.48
2024-02-12T00:59:39.956Z,98026.83
2024-02-12T01:04:42.425Z,98027.02
2024-02-12T01:09:45.270Z,98024.35
2024-02-12T01:14:47.751Z,98025.52
2024-02-12T01:19:54.211Z,98021.75
2024-02-12T01:24:59.699Z,98020.40
2024-02-12T01:30:04.427Z,98017.02
2024-02-12T01:35:07.217Z,98012.96
2024-02-12T01:40:12.658Z,98019.02
2024-02-12T01:45:17.536Z,98016.54
2024-02-12T01:50:20.359Z,98014.73
2024-02-12T01:55:24.632Z,98009.30
2024-02-12T02:00:28.124Z,98006.77
2024-02-12T02:05:31.605Z,98004.83
2024-02-12T02:10:34.102Z,98003.34
2024-02-12T02:15:36.607Z,97998.14
2024-02-12T02:20:39.191Z,97994.73
2024-02-12T02:25:42.626Z,97991.13
2024-02-12T02:30:45.271Z,97989.47
2024-02-12T02:35:49.035Z,97986.48
2024-02-12T02:40:51.501Z,97992.59
2024-02-12T02:45:55.865Z,97989.39
2024-02-12T02:50:58.691Z,97992.96
2024-02-12T02:56:01.237Z,97990.39
2024-02-12T03:01:04.858Z,97993.09
2024-02-12T03:06:07.852Z,97993.41
2024-02-12T03:11:10.938Z,97993.31
2024-02-12T03:16:19.557Z,97990.45
2024-02-12T03:21:23.429Z,97987.23
2024-02-12T03:26:25.900Z,97987.84
2024-02-12T03:31:28.368Z,97988.84
2024-02-12T03:36:31.193Z,97993.23
2024-02-12T03:41:33.709Z,97997.31
2024-02-12T03:46:46.845Z,98000.39
2024-02-12T03:52:05.843Z,97998.45
2024-02-12T03:57:24.247Z,97994.22
2024-02-12T04:02:28.900Z,97991.92
2024-02-12T04:07:31.435Z,97988.33
2024-02-12T04:12:34.671Z,97987.07
2024-02-12T04:17:38.484Z,97985.83
2024-02-12T04:22:41.097Z,97986.36
2024-02-12T04:27:45.122Z,97981.30
2024-02-12T04:32:48.321Z,97986.02
2024-02-12T04:37:50.934Z,97984.67
2024-02-12T04:42:58.695Z,97983.25
2024-02-12T04:48:01.303Z,97978.93
2024-02-12T04:53:04.021Z,97976.48
2024-02-12T04:58:06.766Z,97977.52
2024-02-12T05:03:09.402Z,97975.13
2024-02-12T05:08:12.098Z,97977.66
2024-02-12T05:13:14.674Z,97978.75
2024-02-12T05:18:32.126Z,97973.85
2024-02-12T05:23:35.971Z,97974.40
2024-02-12T05:28:38.461Z,97975.48
2024-02-12T05:33:41.032Z,97976.98
2024-02-12T05:38:47.489Z,97983.17
2024-02-12T05:43:50.122Z,97980.62
2024-02-12T05:48:53.542Z,97986.45
2024-02-12T05:53:56.127Z,97990.80
2024-02-12T05:58:58.675Z,97994.14
2024-02-12T06:04:01.209Z,97993.86
2024-02-12T06:09:04.674Z,97999.75
2024-02-12T06:14:08.897Z,97994.18
2024-02-12T06:19:11.469Z,97999.04
2024-02-12T06:24:14.667Z,98001.07
2024-02-12T06:29:17.307Z,98001.73
2024-02-12T06:34:19.867Z,98002.90
2024-02-12T06:39:22.336Z,98004.67
2024-02-12T06:44:24.854Z,98005.75
2024-02-12T06:49:27.258Z,98009.15
2024-02-12T06:54:30.155Z,98013.69
2024-02-12T06:59:32.593Z,98014.27
2024-02-12T07:04:36.221Z,98013.86
2024-02-12T07:09:38.764Z,98013.77
2024-02-12T07:14:43.247Z,98011.45
2024-02-12T07:19:52.724Z,98013.65
2024-02-12T07:24:55.267Z,98015.38
2024-02-12T07:29:58.031Z,98013.10
2024-02-12T07:35:00.585Z,98019.08
2024-02-12T07:40:08.891Z,98020.36
2024-02-12T07:45:15.186Z,98020.97
2024-02-12T07:50:17.873Z,98018.59
2024-02-12T07:55:23.504Z,98021.81
2024-02-12T08:00:26.479Z,98028.27
2024-02-12T08:05:29.205Z,98027.81
2024-02-12T08:10:31.790Z,98031.34
2024-02-12T08:15:37.488Z,98035.58
2024-02-12T08:20:40.147Z,98037.07
2024-02-12T08:25:42.605Z,98040.21
2024-02-12T08:30:45.223Z,98039.88
2024-02-12T08:35:47.733Z,98045.13
2024-02-12T08:40:51.282Z,98052.60
2024-02-12T08:45:53.711Z,98055.23
2024-02-12T08:50:56.413Z,98060.84
2024-02-12T08:55:58.898Z,98066.74
2024-02-12T09:01:01.988Z,98070.61
2024-02-12T09:06:06.608Z,98067.95
2024-02-12T09:11:10.270Z,98075.77
2024-02-12T09:16:14.577Z,98080.66
2024-02-12T09:21:18.358Z,98088.66
2024-02-12T09:26:21.073Z,98086.56
2024-02-12T09:31:24.056Z,98083.15
2024-02-12T09:36:26.641Z,98082.56
2024-02-12T09:41:31.199Z,98087.77
2024-02-12T09:46:37.818Z,98091.13
2024-02-12T09:51:41.053Z,98092.62
2024-02-12T09:56:49.777Z,98099.05
2024-02-12T10:01:53.111Z,98099.35
2024-02-12T10:06:59.195Z,98102.02
2024-02-12T10:12:08.993Z,98096.90
2024-02-12T10:17:13.850Z,98096.91
2024-02-12T10:22:21.629Z,98098.94
2024-02-12T10:27:27.703Z,98101.98
2024-02-12T10:32:30.721Z,98101.64
2024-02-12T10:37:39.948Z,98098.96
2024-02-12T10:42:51.223Z,98104.67
2024-02-12T10:47:54.137Z,98110.81
2024-02-12T10:52:59.084Z,98113.01
2024-02-12T10:58:01.857Z,98118.61
2024-02-12T11:03:05.490Z,98123.69
2024-02-12T11:08:11.183Z,98128.67
2024-02-12T11:13:17.570Z,98126.38
2024-02-12T11:18:27.121Z,98124.82
2024-02-12T11:23:31.612Z,98133.56
2024-02-12T11:28:34.569Z,98135.01
2024-02-12T11:33:42.042Z,98136.95
2024-02-12T11:38:47.711Z,98141.88
2024-02-12T11:43:50.408Z,98145.11
2024-02-12T11:49:04.639Z,98146.60
2024-02-12T11:54:11.023Z,98151.91
2024-02-12T11:59:19.522Z,98152.48
2024-02-12T12:04:22.269Z,98156.95
2024-02-12T12:09:24.861Z,98159.39
2024-02-12T12:14:27.466Z,98158.55
2024-02-12T12:19:30.166Z,98157.38
2024-02-12T12:24:34.086Z,98158.83
2024-02-12T12:29:36.572Z,98158.47
2024-02-12T12:34:39.018Z,98160.66
2024-02-12T12:39:43.309Z,98161.82
2024-02-12T12:44:47.403Z,98162.61
2024-02-12T12:49:50.144Z,98165.64
2024-02-12T12:54:52.520Z,98168.84
2024-02-12T12:59:55.139Z,98174.15
2024-02-12T13:04:57.547Z,98175.11
2024-02-12T13:09:59.956Z,98179.80
2024-02-12T13:15:03.276Z,98187.34
2024-02-12T13:20:33.960Z,98192.42
2024-02-12T13:25:36.772Z,98194.84
2024-02-12T13:30:39.424Z,98197.75
2024-02-12T13:35:47.617Z,98202.34
2024-02-12T13:40:52.240Z,98208.34
2024-02-12T13:45:55.389Z,98213.73
2024-02-12T13:50:58.008Z,98217.59
2024-02-12T13:56:01.559Z,98217.56
2024-02-12T14:01:16.586Z,98220.75
2024-02-12T14:06:30.589Z,98227.11
2024-02-12T14:11:34.566Z,98232.84
2024-02-12T14:16:37.609Z,98232.56
2024-02-12T14:21:40.890Z,98237.98
2024-02-12T14:26:58.707Z,98242.20
2024-02-12T14:32:37.981Z,98249.25
2024-02-12T14:37:29.794Z,98255.35
2024-02-12T14:42:36.158Z,98260.67
2024-02-12T14:47:42.390Z,98264.97
2024-02-12T14:52:48.515Z,98271.16
2024-02-12T14:57:51.233Z,98275.72
2024-02-12T15:02:55.821Z,98280.52
2024-02-12T15:07:59.514Z,98286.80
2024-02-12T15:13:04.928Z,98293.88
2024-02-12T15:18:11.392Z,98297.05
2024-02-12T15:23:15.787Z,98299.82
2024-02-12T15:28:18.503Z,98305.24
2024-02-12T15:33:22.104Z,98311.40
2024-02-12T15:38:26.753Z,98320.71
2024-02-12T15:43:31.264Z,98328.41
2024-02-12T15:48:34.224Z,98328.48
2024-02-12T15:53:36.916Z,98338.71
2024-02-12T15:58:39.387Z,98348.50
2024-02-12T16:03:42.308Z,98357.21
2024-02-12T16:08:45.877Z,98364.96
2024-02-12T16:13:50.306Z,98367.63
2024-02-12T16:18:55.428Z,98370.35
2024-02-12T16:23:57.963Z,98376.63
2024-02-12T16:29:01.549Z,98382.21
2024-02-12T16:34:04.428Z,98389.42
2024-02-12T16:39:08.097Z,98402.27
2024-02-12T16:44:14.149Z,98402.67
2024-02-12T16:49:16.907Z,98407.61
2024-02-12T16:54:20.728Z,98413.27
2024-02-12T16:59:23.310Z,98422.66
2024-02-12T17:04:25.988Z,98425.40
2024-02-12T17:09:28.491Z,98432.55
2024-02-12T17:14:31.674Z,98438.55
2024-02-12T17:19:34.787Z,98445.52
2024-02-12T17:24:37.468Z,98450.77
2024-02-12T17:29:40.886Z,98460.92
2024-02-12T17:34:43.476Z,98468.92
2024-02-12T17:39:47.514Z,98477.66
2024-02-12T17:44:49.973Z,98478.23
2024-02-12T17:49:53.510Z,98484.36
2024-02-12T17:54:56.322Z,98486.32
2024-02-12T17:59:59.600Z,98490.77
2024-02-12T18:05:02.134Z,98498.02
2024-02-12T18:10:06.905Z,98504.85
2024-02-12T18:15:10.078Z,98517.26
2024-02-12T18:20:15.928Z,98519.59
2024-02-12T18:25:19.627Z,98518.70
2024-02-12T18:30:23.337Z,98519.56
2024-02-12T18:35:26.296Z,98519.38
2024-02-12T18:40:29.002Z,98523.90
2024-02-12T18:45:32.186Z,98527.88
2024-02-12T18:50:35.133Z,98529.48
2024-02-12T18:55:38.052Z,98535.40
2024-02-12T19:00:43.100Z,98541.54
2024-02-12T19:05:49.188Z,98550.45
2024-02-12T19:10:51.945Z,98554.25
2024-02-12T19:15:54.431Z,98556.98
2024-02-12T19:20:59.666Z,98563.70
2024-02-12T19:26:05.274Z,98572.30
2024-02-12T19:31:07.876Z,98579.48
2024-02-12T19:36:11.933Z,98585.63
2024-02-12T19:41:14.485Z,98591.15
2024-02-12T19:46:17.346Z,98599.60
2024-02-12T19:51:19.855Z,98608.88
2024-02-12T19:56:23.084Z,98612.30
2024-02-12T20:01:25.566Z,98618.99
2024-02-12T20:06:28.663Z,98622.30
2024-02-12T20:11:32.634Z,98626.02
2024-02-12T20:16:35.118Z,98630.69
2024-02-12T20:21:37.734Z,98639.78
2024-02-12T20:26:43.340Z,98649.90
2024-02-12T20:31:47.405Z,98652.86
2024-02-12T20:36:50.213Z,98659.30
2024-02-12T20:41:54.145Z,98668.04
2024-02-12T20:47:03.704Z,98671.73
2024-02-12T20:52:08.280Z,98679.86
2024-02-12T20:57:11.748Z,98684.77
2024-02-12T21:02:14.356Z,98687.69
2024-02-12T21:07:18.629Z,98693.23
2024-02-12T21:12:22.116Z,98699.59
2024-02-12T21:17:25.459Z,98709.23
2024-02-12T21:22:28.259Z,98715.98
2024-02-12T21:27:32.082Z,98719.52
2024-02-12T21:32:36.787Z,98727.34
2024-02-12T21:37:40.917Z,98733.80
2024-02-12T21:42:45.457Z,98738.56
2024-02-12T21:47:48.578Z,98748.98
2024-02-12T21:52:51.972Z,98753.27
2024-02-12T21:57:55.062Z,98757.02
2024-02-12T22:02:57.627Z,98760.46
2024-02-12T22:08:00.871Z,98768.41
2024-02-12T22:13:05.688Z,98770.56
2024-02-12T22:18:13.783Z,98777.61
2024-02-12T22:23:16.528Z,98783.23
2024-02-12T22:28:20.049Z,98790.08
2024-02-12T22:33:23.608Z,98796.92
2024-02-12T22:38:29.344Z,98802.30
2024-02-12T22:43:32.937Z,98805.84
2024-02-12T22:48:35.738Z,98811.03
2024-02-12T22:53:38.386Z,98816.78
2024-02-12T22:58:42.982Z,98824.10
2024-02-12T23:03:45.786Z,98831.74
2024-02-12T23:08:48.481Z,98836.48
2024-02-12T23:13:50.982Z,98836.86
2024-02-12T23:18:53.589Z,98845.96
2024-02-12T23:23:56.528Z,98853.95
2024-02-12T23:28:59.088Z,98858.26
2024-02-12T23:34:02.157Z,98860.50
2024-02-12T23:39:05.546Z,98869.92
2024-02-12T23:44:08.035Z,98872.79
2024-02-12T23:49:10.625Z,98878.20
2024-02-12T23:54:13.198Z,98882.58
2024-02-12T23:59:15.744Z,98887.63
